sensor_id;sensor_type;location;lat;lon;timestamp;P1;durP1;ratioP1;P2;durP2;ratioP2
29538;SDS011;16482;51.046;4.498;2022-12-18T00:01:27;17.67;;;14.68;;
29538;SDS011;16482;51.046;4.498;2022-12-18T00:03:58;18.17;;;14.52;;
29538;SDS011;16482;51.046;4.498;2022-12-18T00:06:29;19.42;;;15.23;;
29538;SDS011;16482;51.046;4.498;2022-12-18T00:08:57;19.38;;;14.30;;
29538;SDS011;16482;51.046;4.498;2022-12-18T00:11:25;19.83;;;15.57;;
29538;SDS011;16482;51.046;4.498;2022-12-18T00:13:56;19.25;;;15.25;;
29538;SDS011;16482;51.046;4.498;2022-12-18T00:16:25;19.73;;;15.98;;
29538;SDS011;16482;51.046;4.498;2022-12-18T00:18:53;19.90;;;15.95;;
29538;SDS011;16482;51.046;4.498;2022-12-18T00:21:23;20.25;;;16.15;;
29538;SDS011;16482;51.046;4.498;2022-12-18T00:23:49;21.20;;;16.05;;
29538;SDS011;16482;51.046;4.498;2022-12-18T00:26:17;18.85;;;15.82;;
29538;SDS011;16482;51.046;4.498;2022-12-18T00:28:48;20.27;;;16.10;;
29538;SDS011;16482;51.046;4.498;2022-12-18T00:31:15;20.65;;;16.02;;
29538;SDS011;16482;51.046;4.498;2022-12-18T00:33:44;19.95;;;15.48;;
29538;SDS011;16482;51.046;4.498;2022-12-18T00:36:14;21.08;;;16.40;;
29538;SDS011;16482;51.046;4.498;2022-12-18T00:38:43;20.42;;;16.48;;
29538;SDS011;16482;51.046;4.498;2022-12-18T00:41:10;21.50;;;16.55;;
29538;SDS011;16482;51.046;4.498;2022-12-18T00:43:57;20.70;;;16.20;;
29538;SDS011;16482;51.046;4.498;2022-12-18T00:46:23;20.27;;;16.40;;
29538;SDS011;16482;51.046;4.498;2022-12-18T00:48:49;21.40;;;16.50;;
29538;SDS011;16482;51.046;4.498;2022-12-18T00:51:15;22.38;;;17.10;;
29538;SDS011;16482;51.046;4.498;2022-12-18T00:53:41;19.85;;;16.55;;
29538;SDS011;16482;51.046;4.498;2022-12-18T00:56:07;20.45;;;16.58;;
29538;SDS011;16482;51.046;4.498;2022-12-18T00:58:33;21.05;;;16.42;;
29538;SDS011;16482;51.046;4.498;2022-12-18T01:00:59;21.92;;;16.50;;
29538;SDS011;16482;51.046;4.498;2022-12-18T01:03:28;21.10;;;16.25;;
29538;SDS011;16482;51.046;4.498;2022-12-18T01:05:54;23.10;;;17.23;;
29538;SDS011;16482;51.046;4.498;2022-12-18T01:08:22;21.30;;;16.75;;
29538;SDS011;16482;51.046;4.498;2022-12-18T01:10:53;21.73;;;16.98;;
29538;SDS011;16482;51.046;4.498;2022-12-18T01:13:19;23.42;;;17.92;;
29538;SDS011;16482;51.046;4.498;2022-12-18T01:15:48;19.13;;;16.05;;
29538;SDS011;16482;51.046;4.498;2022-12-18T01:18:24;21.42;;;16.73;;
29538;SDS011;16482;51.046;4.498;2022-12-18T01:20:50;21.80;;;16.33;;
29538;SDS011;16482;51.046;4.498;2022-12-18T01:23:19;22.30;;;16.92;;
29538;SDS011;16482;51.046;4.498;2022-12-18T01:25:45;20.67;;;16.35;;
29538;SDS011;16482;51.046;4.498;2022-12-18T01:28:11;21.48;;;16.95;;
29538;SDS011;16482;51.046;4.498;2022-12-18T01:30:37;20.75;;;16.05;;
29538;SDS011;16482;51.046;4.498;2022-12-18T01:33:05;21.65;;;16.70;;
29538;SDS011;16482;51.046;4.498;2022-12-18T01:35:31;20.73;;;15.80;;
29538;SDS011;16482;51.046;4.498;2022-12-18T01:37:57;20.58;;;16.02;;
29538;SDS011;16482;51.046;4.498;2022-12-18T01:40:23;23.58;;;16.52;;
29538;SDS011;16482;51.046;4.498;2022-12-18T01:42:52;21.33;;;16.27;;
29538;SDS011;16482;51.046;4.498;2022-12-18T01:45:23;21.42;;;16.65;;
29538;SDS011;16482;51.046;4.498;2022-12-18T01:47:56;19.52;;;15.48;;
29538;SDS011;16482;51.046;4.498;2022-12-18T01:50:35;20.48;;;16.25;;
29538;SDS011;16482;51.046;4.498;2022-12-18T01:53:10;21.00;;;16.25;;
29538;SDS011;16482;51.046;4.498;2022-12-18T01:55:48;21.08;;;15.50;;
29538;SDS011;16482;51.046;4.498;2022-12-18T01:58:21;20.85;;;16.05;;
29538;SDS011;16482;51.046;4.498;2022-12-18T02:00:55;20.40;;;15.57;;
29538;SDS011;16482;51.046;4.498;2022-12-18T02:03:21;20.48;;;15.27;;
29538;SDS011;16482;51.046;4.498;2022-12-18T02:05:54;21.35;;;15.95;;
29538;SDS011;16482;51.046;4.498;2022-12-18T02:11:27;20.60;;;15.98;;
29538;SDS011;16482;51.046;4.498;2022-12-18T02:17:03;21.63;;;16.23;;
29538;SDS011;16482;51.046;4.498;2022-12-18T02:22:20;20.52;;;16.10;;
29538;SDS011;16482;51.046;4.498;2022-12-18T02:27:56;22.80;;;16.92;;
29538;SDS011;16482;51.046;4.498;2022-12-18T02:30:26;19.17;;;15.20;;
29538;SDS011;16482;51.046;4.498;2022-12-18T02:32:56;20.10;;;16.50;;
29538;SDS011;16482;51.046;4.498;2022-12-18T02:35:25;20.08;;;16.17;;
29538;SDS011;16482;51.046;4.498;2022-12-18T02:37:53;22.77;;;17.35;;
29538;SDS011;16482;51.046;4.498;2022-12-18T02:40:20;22.88;;;17.00;;
29538;SDS011;16482;51.046;4.498;2022-12-18T02:42:49;22.50;;;16.85;;
29538;SDS011;16482;51.046;4.498;2022-12-18T02:45:15;20.55;;;16.25;;
29538;SDS011;16482;51.046;4.498;2022-12-18T02:47:42;22.52;;;17.50;;
29538;SDS011;16482;51.046;4.498;2022-12-18T02:50:14;20.90;;;16.38;;
29538;SDS011;16482;51.046;4.498;2022-12-18T02:58:28;21.08;;;16.45;;
29538;SDS011;16482;51.046;4.498;2022-12-18T03:01:28;20.20;;;15.95;;
29538;SDS011;16482;51.046;4.498;2022-12-18T03:07:01;21.75;;;16.48;;
29538;SDS011;16482;51.046;4.498;2022-12-18T03:09:35;21.13;;;16.50;;
29538;SDS011;16482;51.046;4.498;2022-12-18T03:12:15;20.63;;;16.35;;
29538;SDS011;16482;51.046;4.498;2022-12-18T03:15:34;20.48;;;15.52;;
29538;SDS011;16482;51.046;4.498;2022-12-18T03:17:35;19.27;;;14.93;;
29538;SDS011;16482;51.046;4.498;2022-12-18T03:20:12;19.92;;;15.60;;
29538;SDS011;16482;51.046;4.498;2022-12-18T03:22:40;20.25;;;15.55;;
29538;SDS011;16482;51.046;4.498;2022-12-18T03:25:11;19.95;;;15.30;;
29538;SDS011;16482;51.046;4.498;2022-12-18T03:27:41;18.77;;;14.68;;
29538;SDS011;16482;51.046;4.498;2022-12-18T03:30:12;18.45;;;14.00;;
29538;SDS011;16482;51.046;4.498;2022-12-18T03:32:41;18.45;;;14.57;;
29538;SDS011;16482;51.046;4.498;2022-12-18T03:35:13;18.90;;;14.88;;
29538;SDS011;16482;51.046;4.498;2022-12-18T03:37:46;20.45;;;15.30;;
29538;SDS011;16482;51.046;4.498;2022-12-18T03:40:12;20.08;;;15.27;;
29538;SDS011;16482;51.046;4.498;2022-12-18T03:45:19;19.23;;;14.52;;
29538;SDS011;16482;51.046;4.498;2022-12-18T03:50:21;19.65;;;14.75;;
29538;SDS011;16482;51.046;4.498;2022-12-18T03:55:24;17.35;;;13.82;;
29538;SDS011;16482;51.046;4.498;2022-12-18T03:57:55;18.55;;;14.57;;
29538;SDS011;16482;51.046;4.498;2022-12-18T04:00:21;18.95;;;14.82;;
29538;SDS011;16482;51.046;4.498;2022-12-18T04:02:48;19.08;;;15.13;;
29538;SDS011;16482;51.046;4.498;2022-12-18T04:05:18;17.35;;;13.75;;
29538;SDS011;16482;51.046;4.498;2022-12-18T04:07:46;20.35;;;14.73;;
29538;SDS011;16482;51.046;4.498;2022-12-18T04:10:14;19.83;;;14.52;;
29538;SDS011;16482;51.046;4.498;2022-12-18T04:12:43;18.35;;;14.15;;
29538;SDS011;16482;51.046;4.498;2022-12-18T04:15:10;17.65;;;14.40;;
29538;SDS011;16482;51.046;4.498;2022-12-18T04:17:36;16.70;;;13.18;;
29538;SDS011;16482;51.046;4.498;2022-12-18T04:20:03;18.15;;;13.18;;
29538;SDS011;16482;51.046;4.498;2022-12-18T04:22:32;17.30;;;13.20;;
29538;SDS011;16482;51.046;4.498;2022-12-18T04:24:58;18.52;;;13.15;;
29538;SDS011;16482;51.046;4.498;2022-12-18T04:27:27;16.20;;;12.75;;
29538;SDS011;16482;51.046;4.498;2022-12-18T04:29:56;17.35;;;13.20;;
29538;SDS011;16482;51.046;4.498;2022-12-18T04:32:33;16.15;;;13.38;;
29538;SDS011;16482;51.046;4.498;2022-12-18T04:35:02;17.13;;;12.65;;
29538;SDS011;16482;51.046;4.498;2022-12-18T04:37:31;17.13;;;12.85;;
29538;SDS011;16482;51.046;4.498;2022-12-18T04:40:03;17.10;;;12.73;;
29538;SDS011;16482;51.046;4.498;2022-12-18T04:42:33;16.95;;;13.27;;
29538;SDS011;16482;51.046;4.498;2022-12-18T04:44:59;17.40;;;13.52;;
29538;SDS011;16482;51.046;4.498;2022-12-18T04:47:25;16.58;;;13.05;;
29538;SDS011;16482;51.046;4.498;2022-12-18T04:49:51;17.08;;;13.35;;
29538;SDS011;16482;51.046;4.498;2022-12-18T04:52:17;16.73;;;13.30;;
29538;SDS011;16482;51.046;4.498;2022-12-18T04:54:43;18.52;;;14.05;;
29538;SDS011;16482;51.046;4.498;2022-12-18T04:57:09;18.30;;;13.73;;
29538;SDS011;16482;51.046;4.498;2022-12-18T04:59:35;16.58;;;13.10;;
29538;SDS011;16482;51.046;4.498;2022-12-18T05:02:01;16.27;;;12.80;;
29538;SDS011;16482;51.046;4.498;2022-12-18T05:04:27;16.77;;;12.68;;
29538;SDS011;16482;51.046;4.498;2022-12-18T05:06:53;16.58;;;13.15;;
29538;SDS011;16482;51.046;4.498;2022-12-18T05:09:19;18.25;;;13.50;;
29538;SDS011;16482;51.046;4.498;2022-12-18T05:11:48;15.88;;;12.95;;
29538;SDS011;16482;51.046;4.498;2022-12-18T05:14:23;16.27;;;12.65;;
29538;SDS011;16482;51.046;4.498;2022-12-18T05:16:49;18.15;;;13.02;;
29538;SDS011;16482;51.046;4.498;2022-12-18T05:19:15;18.85;;;13.23;;
29538;SDS011;16482;51.046;4.498;2022-12-18T05:21:41;15.70;;;12.73;;
29538;SDS011;16482;51.046;4.498;2022-12-18T05:24:13;16.48;;;12.68;;
29538;SDS011;16482;51.046;4.498;2022-12-18T05:26:41;17.13;;;12.95;;
29538;SDS011;16482;51.046;4.498;2022-12-18T05:29:08;16.17;;;13.13;;
29538;SDS011;16482;51.046;4.498;2022-12-18T05:31:37;15.80;;;12.90;;
29538;SDS011;16482;51.046;4.498;2022-12-18T05:34:07;15.88;;;13.05;;
29538;SDS011;16482;51.046;4.498;2022-12-18T05:36:40;15.88;;;11.85;;
29538;SDS011;16482;51.046;4.498;2022-12-18T05:39:06;16.73;;;11.93;;
29538;SDS011;16482;51.046;4.498;2022-12-18T05:41:43;15.48;;;11.95;;
29538;SDS011;16482;51.046;4.498;2022-12-18T05:44:12;14.20;;;10.95;;
29538;SDS011;16482;51.046;4.498;2022-12-18T05:46:38;11.88;;;9.65;;
29538;SDS011;16482;51.046;4.498;2022-12-18T05:49:11;13.15;;;10.80;;
29538;SDS011;16482;51.046;4.498;2022-12-18T05:51:43;12.88;;;9.73;;
29538;SDS011;16482;51.046;4.498;2022-12-18T05:54:13;11.80;;;10.00;;
29538;SDS011;16482;51.046;4.498;2022-12-18T05:56:39;12.77;;;10.13;;
29538;SDS011;16482;51.046;4.498;2022-12-18T05:59:08;12.60;;;9.68;;
29538;SDS011;16482;51.046;4.498;2022-12-18T06:01:37;13.23;;;10.75;;
29538;SDS011;16482;51.046;4.498;2022-12-18T06:04:03;12.43;;;9.70;;
29538;SDS011;16482;51.046;4.498;2022-12-18T06:06:29;13.18;;;10.10;;
29538;SDS011;16482;51.046;4.498;2022-12-18T06:08:55;12.77;;;9.93;;
29538;SDS011;16482;51.046;4.498;2022-12-18T06:11:26;12.43;;;9.90;;
29538;SDS011;16482;51.046;4.498;2022-12-18T06:13:53;13.55;;;9.90;;
29538;SDS011;16482;51.046;4.498;2022-12-18T06:16:22;12.70;;;9.82;;
29538;SDS011;16482;51.046;4.498;2022-12-18T06:18:48;12.68;;;9.35;;
29538;SDS011;16482;51.046;4.498;2022-12-18T06:21:14;12.43;;;9.40;;
29538;SDS011;16482;51.046;4.498;2022-12-18T06:23:41;11.90;;;9.38;;
29538;SDS011;16482;51.046;4.498;2022-12-18T06:26:08;12.55;;;10.15;;
29538;SDS011;16482;51.046;4.498;2022-12-18T06:28:36;12.45;;;9.32;;
29538;SDS011;16482;51.046;4.498;2022-12-18T06:31:02;13.63;;;9.65;;
29538;SDS011;16482;51.046;4.498;2022-12-18T06:33:30;11.90;;;9.77;;
29538;SDS011;16482;51.046;4.498;2022-12-18T06:36:04;12.68;;;9.55;;
29538;SDS011;16482;51.046;4.498;2022-12-18T06:38:32;11.43;;;9.38;;
29538;SDS011;16482;51.046;4.498;2022-12-18T06:40:59;10.48;;;8.80;;
29538;SDS011;16482;51.046;4.498;2022-12-18T06:43:25;11.52;;;9.32;;
29538;SDS011;16482;51.046;4.498;2022-12-18T06:45:51;11.50;;;8.80;;
29538;SDS011;16482;51.046;4.498;2022-12-18T06:48:22;10.27;;;8.75;;
29538;SDS011;16482;51.046;4.498;2022-12-18T06:50:54;11.18;;;8.95;;
29538;SDS011;16482;51.046;4.498;2022-12-18T06:53:22;11.40;;;9.05;;
29538;SDS011;16482;51.046;4.498;2022-12-18T06:55:49;10.85;;;8.43;;
29538;SDS011;16482;51.046;4.498;2022-12-18T06:58:17;11.10;;;8.98;;
29538;SDS011;16482;51.046;4.498;2022-12-18T07:00:52;10.98;;;8.82;;
29538;SDS011;16482;51.046;4.498;2022-12-18T07:03:18;11.13;;;8.50;;
29538;SDS011;16482;51.046;4.498;2022-12-18T07:05:47;11.57;;;8.60;;
29538;SDS011;16482;51.046;4.498;2022-12-18T07:08:22;11.52;;;9.43;;
29538;SDS011;16482;51.046;4.498;2022-12-18T07:10:53;9.85;;;8.63;;
29538;SDS011;16482;51.046;4.498;2022-12-18T07:13:20;11.05;;;8.63;;
29538;SDS011;16482;51.046;4.498;2022-12-18T07:15:49;10.02;;;8.02;;
29538;SDS011;16482;51.046;4.498;2022-12-18T07:18:27;11.57;;;8.43;;
29538;SDS011;16482;51.046;4.498;2022-12-18T07:20:53;9.60;;;7.82;;
29538;SDS011;16482;51.046;4.498;2022-12-18T07:23:22;10.23;;;8.60;;
29538;SDS011;16482;51.046;4.498;2022-12-18T07:25:49;10.05;;;8.25;;
29538;SDS011;16482;51.046;4.498;2022-12-18T07:28:15;10.50;;;8.27;;
29538;SDS011;16482;51.046;4.498;2022-12-18T07:30:41;11.02;;;8.13;;
29538;SDS011;16482;51.046;4.498;2022-12-18T07:33:07;11.57;;;8.45;;
29538;SDS011;16482;51.046;4.498;2022-12-18T07:35:33;10.30;;;8.43;;
29538;SDS011;16482;51.046;4.498;2022-12-18T07:37:59;9.98;;;8.13;;
29538;SDS011;16482;51.046;4.498;2022-12-18T07:40:26;10.52;;;8.73;;
29538;SDS011;16482;51.046;4.498;2022-12-18T07:42:52;9.98;;;8.40;;
29538;SDS011;16482;51.046;4.498;2022-12-18T07:45:19;9.35;;;7.65;;
29538;SDS011;16482;51.046;4.498;2022-12-18T07:47:45;9.82;;;8.13;;
29538;SDS011;16482;51.046;4.498;2022-12-18T07:50:11;9.95;;;7.80;;
29538;SDS011;16482;51.046;4.498;2022-12-18T07:52:38;10.00;;;8.20;;
29538;SDS011;16482;51.046;4.498;2022-12-18T07:55:04;9.40;;;7.40;;
29538;SDS011;16482;51.046;4.498;2022-12-18T07:57:33;9.32;;;8.20;;
29538;SDS011;16482;51.046;4.498;2022-12-18T07:59:59;9.02;;;7.60;;
29538;SDS011;16482;51.046;4.498;2022-12-18T08:02:29;10.57;;;8.45;;
29538;SDS011;16482;51.046;4.498;2022-12-18T08:05:05;10.32;;;7.85;;
29538;SDS011;16482;51.046;4.498;2022-12-18T08:07:33;10.00;;;7.93;;
29538;SDS011;16482;51.046;4.498;2022-12-18T08:10:02;9.05;;;7.82;;
29538;SDS011;16482;51.046;4.498;2022-12-18T08:12:29;10.82;;;8.07;;
29538;SDS011;16482;51.046;4.498;2022-12-18T08:14:55;10.00;;;7.72;;
29538;SDS011;16482;51.046;4.498;2022-12-18T08:17:21;12.07;;;8.10;;
29538;SDS011;16482;51.046;4.498;2022-12-18T08:19:47;10.70;;;7.90;;
29538;SDS011;16482;51.046;4.498;2022-12-18T08:22:13;8.88;;;7.55;;
29538;SDS011;16482;51.046;4.498;2022-12-18T08:24:39;10.25;;;8.10;;
29538;SDS011;16482;51.046;4.498;2022-12-18T08:27:05;10.18;;;7.90;;
29538;SDS011;16482;51.046;4.498;2022-12-18T08:29:31;9.65;;;7.80;;
29538;SDS011;16482;51.046;4.498;2022-12-18T08:31:57;9.07;;;7.53;;
29538;SDS011;16482;51.046;4.498;2022-12-18T08:34:23;10.52;;;8.13;;
29538;SDS011;16482;51.046;4.498;2022-12-18T08:36:49;10.02;;;8.05;;
29538;SDS011;16482;51.046;4.498;2022-12-18T08:39:15;8.98;;;7.18;;
29538;SDS011;16482;51.046;4.498;2022-12-18T08:41:43;9.32;;;7.65;;
29538;SDS011;16482;51.046;4.498;2022-12-18T08:44:29;10.20;;;7.65;;
29538;SDS011;16482;51.046;4.498;2022-12-18T08:47:07;9.90;;;8.18;;
29538;SDS011;16482;51.046;4.498;2022-12-18T08:49:33;9.55;;;7.65;;
29538;SDS011;16482;51.046;4.498;2022-12-18T08:52:00;10.43;;;8.27;;
29538;SDS011;16482;51.046;4.498;2022-12-18T08:54:28;8.25;;;7.00;;
29538;SDS011;16482;51.046;4.498;2022-12-18T08:56:54;9.98;;;7.68;;
29538;SDS011;16482;51.046;4.498;2022-12-18T08:59:20;8.82;;;7.30;;
29538;SDS011;16482;51.046;4.498;2022-12-18T09:01:46;9.02;;;7.55;;
29538;SDS011;16482;51.046;4.498;2022-12-18T09:04:13;9.90;;;7.35;;
29538;SDS011;16482;51.046;4.498;2022-12-18T09:06:39;9.43;;;7.53;;
29538;SDS011;16482;51.046;4.498;2022-12-18T09:09:13;9.40;;;7.28;;
29538;SDS011;16482;51.046;4.498;2022-12-18T09:11:46;9.30;;;7.55;;
29538;SDS011;16482;51.046;4.498;2022-12-18T09:14:12;8.85;;;7.03;;
29538;SDS011;16482;51.046;4.498;2022-12-18T09:16:38;9.00;;;6.78;;
29538;SDS011;16482;51.046;4.498;2022-12-18T09:19:04;11.27;;;7.43;;
29538;SDS011;16482;51.046;4.498;2022-12-18T09:21:32;9.30;;;7.60;;
29538;SDS011;16482;51.046;4.498;2022-12-18T09:23:59;9.80;;;7.43;;
29538;SDS011;16482;51.046;4.498;2022-12-18T09:26:26;8.60;;;6.80;;
29538;SDS011;16482;51.046;4.498;2022-12-18T09:28:52;9.30;;;6.97;;
29538;SDS011;16482;51.046;4.498;2022-12-18T09:31:20;10.00;;;7.72;;
29538;SDS011;16482;51.046;4.498;2022-12-18T09:33:48;10.13;;;7.43;;
29538;SDS011;16482;51.046;4.498;2022-12-18T09:36:15;8.75;;;6.82;;
29538;SDS011;16482;51.046;4.498;2022-12-18T09:38:42;14.68;;;7.07;;
29538;SDS011;16482;51.046;4.498;2022-12-18T09:44:05;8.68;;;6.70;;
29538;SDS011;16482;51.046;4.498;2022-12-18T09:46:38;9.65;;;6.85;;
29538;SDS011;16482;51.046;4.498;2022-12-18T09:49:17;11.40;;;6.68;;
29538;SDS011;16482;51.046;4.498;2022-12-18T09:51:52;8.98;;;6.63;;
29538;SDS011;16482;51.046;4.498;2022-12-18T09:54:23;10.05;;;7.28;;
29538;SDS011;16482;51.046;4.498;2022-12-18T09:56:58;8.02;;;6.05;;
29538;SDS011;16482;51.046;4.498;2022-12-18T09:59:25;11.02;;;7.25;;
29538;SDS011;16482;51.046;4.498;2022-12-18T10:01:56;11.57;;;7.40;;
29538;SDS011;16482;51.046;4.498;2022-12-18T10:04:22;8.07;;;6.50;;
29538;SDS011;16482;51.046;4.498;2022-12-18T10:06:52;9.63;;;7.38;;
29538;SDS011;16482;51.046;4.498;2022-12-18T10:09:30;8.88;;;6.93;;
29538;SDS011;16482;51.046;4.498;2022-12-18T10:23:20;9.88;;;7.15;;
29538;SDS011;16482;51.046;4.498;2022-12-18T10:26:07;9.23;;;6.85;;
29538;SDS011;16482;51.046;4.498;2022-12-18T10:28:36;8.52;;;6.68;;
29538;SDS011;16482;51.046;4.498;2022-12-18T10:31:18;11.25;;;7.22;;
29538;SDS011;16482;51.046;4.498;2022-12-18T10:33:46;9.18;;;6.65;;
29538;SDS011;16482;51.046;4.498;2022-12-18T10:36:12;10.00;;;6.70;;
29538;SDS011;16482;51.046;4.498;2022-12-18T10:38:38;9.23;;;7.28;;
29538;SDS011;16482;51.046;4.498;2022-12-18T10:41:05;8.23;;;6.28;;
29538;SDS011;16482;51.046;4.498;2022-12-18T10:43:38;7.95;;;6.45;;
29538;SDS011;16482;51.046;4.498;2022-12-18T10:48:36;11.55;;;6.70;;
29538;SDS011;16482;51.046;4.498;2022-12-18T10:51:10;10.88;;;6.90;;
29538;SDS011;16482;51.046;4.498;2022-12-18T10:54:35;9.88;;;6.68;;
29538;SDS011;16482;51.046;4.498;2022-12-18T10:56:46;8.55;;;6.03;;
29538;SDS011;16482;51.046;4.498;2022-12-18T10:59:14;8.30;;;6.05;;
29538;SDS011;16482;51.046;4.498;2022-12-18T11:04:21;9.95;;;6.45;;
29538;SDS011;16482;51.046;4.498;2022-12-18T11:07:07;8.30;;;5.93;;
29538;SDS011;16482;51.046;4.498;2022-12-18T11:09:36;8.77;;;6.47;;
29538;SDS011;16482;51.046;4.498;2022-12-18T11:17:19;8.48;;;5.97;;
29538;SDS011;16482;51.046;4.498;2022-12-18T11:19:55;9.07;;;5.80;;
29538;SDS011;16482;51.046;4.498;2022-12-18T11:22:29;7.68;;;5.75;;
29538;SDS011;16482;51.046;4.498;2022-12-18T11:27:56;11.07;;;5.82;;
29538;SDS011;16482;51.046;4.498;2022-12-18T11:32:56;7.78;;;5.70;;
29538;SDS011;16482;51.046;4.498;2022-12-18T11:35:35;8.05;;;5.72;;
29538;SDS011;16482;51.046;4.498;2022-12-18T11:38:05;10.85;;;5.80;;
29538;SDS011;16482;51.046;4.498;2022-12-18T11:40:38;8.30;;;5.72;;
29538;SDS011;16482;51.046;4.498;2022-12-18T11:43:12;8.13;;;5.80;;
29538;SDS011;16482;51.046;4.498;2022-12-18T11:45:55;7.77;;;6.00;;
29538;SDS011;16482;51.046;4.498;2022-12-18T11:48:27;7.13;;;5.32;;
29538;SDS011;16482;51.046;4.498;2022-12-18T11:51:00;8.18;;;5.90;;
29538;SDS011;16482;51.046;4.498;2022-12-18T11:53:30;7.78;;;6.30;;
29538;SDS011;16482;51.046;4.498;2022-12-18T11:58:47;9.02;;;5.72;;
29538;SDS011;16482;51.046;4.498;2022-12-18T12:04:54;8.23;;;5.60;;
29538;SDS011;16482;51.046;4.498;2022-12-18T12:13:00;6.95;;;5.40;;
29538;SDS011;16482;51.046;4.498;2022-12-18T12:18:31;6.20;;;5.25;;
29538;SDS011;16482;51.046;4.498;2022-12-18T12:24:28;7.93;;;5.80;;
29538;SDS011;16482;51.046;4.498;2022-12-18T12:27:25;6.90;;;5.55;;
29538;SDS011;16482;51.046;4.498;2022-12-18T12:38:05;7.10;;;5.35;;
29538;SDS011;16482;51.046;4.498;2022-12-18T12:40:33;8.15;;;5.40;;
29538;SDS011;16482;51.046;4.498;2022-12-18T12:43:38;7.13;;;5.53;;
29538;SDS011;16482;51.046;4.498;2022-12-18T12:46:11;9.13;;;5.55;;
29538;SDS011;16482;51.046;4.498;2022-12-18T12:48:49;6.93;;;5.25;;
29538;SDS011;16482;51.046;4.498;2022-12-18T12:51:19;7.95;;;4.97;;
29538;SDS011;16482;51.046;4.498;2022-12-18T12:53:49;6.43;;;4.95;;
29538;SDS011;16482;51.046;4.498;2022-12-18T12:56:18;6.75;;;5.50;;
29538;SDS011;16482;51.046;4.498;2022-12-18T13:01:58;6.80;;;5.43;;
29538;SDS011;16482;51.046;4.498;2022-12-18T13:04:32;7.10;;;5.45;;
29538;SDS011;16482;51.046;4.498;2022-12-18T13:07:15;6.10;;;5.05;;
29538;SDS011;16482;51.046;4.498;2022-12-18T13:15:37;7.20;;;5.15;;
29538;SDS011;16482;51.046;4.498;2022-12-18T13:18:24;6.13;;;5.03;;
29538;SDS011;16482;51.046;4.498;2022-12-18T13:31:10;6.05;;;5.05;;
29538;SDS011;16482;51.046;4.498;2022-12-18T13:33:42;7.03;;;4.80;;
29538;SDS011;16482;51.046;4.498;2022-12-18T13:36:14;5.90;;;4.75;;
29538;SDS011;16482;51.046;4.498;2022-12-18T13:38:40;5.80;;;5.15;;
29538;SDS011;16482;51.046;4.498;2022-12-18T13:43:41;5.95;;;4.63;;
29538;SDS011;16482;51.046;4.498;2022-12-18T13:46:21;6.40;;;4.28;;
29538;SDS011;16482;51.046;4.498;2022-12-18T13:48:56;5.80;;;4.88;;
29538;SDS011;16482;51.046;4.498;2022-12-18T13:51:25;6.57;;;4.93;;
29538;SDS011;16482;51.046;4.498;2022-12-18T13:54:00;7.28;;;4.85;;
29538;SDS011;16482;51.046;4.498;2022-12-18T13:56:32;6.10;;;4.93;;
29538;SDS011;16482;51.046;4.498;2022-12-18T13:59:11;5.80;;;4.88;;
29538;SDS011;16482;51.046;4.498;2022-12-18T14:01:50;8.95;;;5.10;;
29538;SDS011;16482;51.046;4.498;2022-12-18T14:06:49;6.90;;;5.30;;
29538;SDS011;16482;51.046;4.498;2022-12-18T14:09:41;6.22;;;4.95;;
29538;SDS011;16482;51.046;4.498;2022-12-18T14:12:18;6.25;;;4.82;;
29538;SDS011;16482;51.046;4.498;2022-12-18T14:15:26;5.90;;;4.82;;
29538;SDS011;16482;51.046;4.498;2022-12-18T14:18:20;6.53;;;5.20;;
29538;SDS011;16482;51.046;4.498;2022-12-18T14:20:57;5.88;;;4.70;;
29538;SDS011;16482;51.046;4.498;2022-12-18T14:25:58;5.75;;;4.32;;
29538;SDS011;16482;51.046;4.498;2022-12-18T14:28:26;5.13;;;4.30;;
29538;SDS011;16482;51.046;4.498;2022-12-18T14:30:53;6.82;;;4.95;;
29538;SDS011;16482;51.046;4.498;2022-12-18T14:33:29;6.25;;;4.90;;
29538;SDS011;16482;51.046;4.498;2022-12-18T14:35:57;6.38;;;4.40;;
29538;SDS011;16482;51.046;4.498;2022-12-18T14:38:35;6.40;;;4.70;;
29538;SDS011;16482;51.046;4.498;2022-12-18T14:41:14;6.40;;;5.30;;
29538;SDS011;16482;51.046;4.498;2022-12-18T14:43:42;5.75;;;5.13;;
29538;SDS011;16482;51.046;4.498;2022-12-18T14:46:26;6.53;;;5.13;;
29538;SDS011;16482;51.046;4.498;2022-12-18T14:48:59;6.47;;;4.88;;
29538;SDS011;16482;51.046;4.498;2022-12-18T14:51:37;5.97;;;5.32;;
29538;SDS011;16482;51.046;4.498;2022-12-18T14:54:05;7.18;;;5.35;;
29538;SDS011;16482;51.046;4.498;2022-12-18T14:56:46;5.68;;;4.85;;
29538;SDS011;16482;51.046;4.498;2022-12-18T14:59:17;6.03;;;5.10;;
29538;SDS011;16482;51.046;4.498;2022-12-18T15:02:10;7.13;;;5.30;;
29538;SDS011;16482;51.046;4.498;2022-12-18T15:05:02;6.00;;;5.20;;
29538;SDS011;16482;51.046;4.498;2022-12-18T15:07:50;7.72;;;5.57;;
29538;SDS011;16482;51.046;4.498;2022-12-18T15:10:26;6.38;;;5.20;;
29538;SDS011;16482;51.046;4.498;2022-12-18T15:18:05;5.88;;;5.20;;
29538;SDS011;16482;51.046;4.498;2022-12-18T15:23:23;8.32;;;5.72;;
29538;SDS011;16482;51.046;4.498;2022-12-18T15:26:11;6.88;;;5.32;;
29538;SDS011;16482;51.046;4.498;2022-12-18T15:28:46;6.72;;;5.35;;
29538;SDS011;16482;51.046;4.498;2022-12-18T15:36:16;7.35;;;5.97;;
29538;SDS011;16482;51.046;4.498;2022-12-18T15:38:48;6.50;;;5.03;;
29538;SDS011;16482;51.046;4.498;2022-12-18T15:41:16;6.50;;;5.50;;
29538;SDS011;16482;51.046;4.498;2022-12-18T15:43:46;6.70;;;5.82;;
29538;SDS011;16482;51.046;4.498;2022-12-18T15:46:15;6.57;;;5.30;;
29538;SDS011;16482;51.046;4.498;2022-12-18T15:48:43;7.13;;;5.60;;
29538;SDS011;16482;51.046;4.498;2022-12-18T15:51:31;6.40;;;5.70;;
29538;SDS011;16482;51.046;4.498;2022-12-18T15:53:59;7.00;;;5.65;;
29538;SDS011;16482;51.046;4.498;2022-12-18T15:56:29;6.57;;;5.25;;
29538;SDS011;16482;51.046;4.498;2022-12-18T15:59:16;7.82;;;5.28;;
29538;SDS011;16482;51.046;4.498;2022-12-18T16:01:48;7.28;;;5.70;;
29538;SDS011;16482;51.046;4.498;2022-12-18T16:04:17;6.93;;;5.25;;
29538;SDS011;16482;51.046;4.498;2022-12-18T16:06:49;7.60;;;6.03;;
29538;SDS011;16482;51.046;4.498;2022-12-18T16:09:16;7.55;;;6.05;;
29538;SDS011;16482;51.046;4.498;2022-12-18T16:11:45;7.38;;;5.80;;
29538;SDS011;16482;51.046;4.498;2022-12-18T16:14:17;7.18;;;5.63;;
29538;SDS011;16482;51.046;4.498;2022-12-18T16:16:57;7.50;;;5.75;;
29538;SDS011;16482;51.046;4.498;2022-12-18T16:19:28;6.97;;;5.55;;
29538;SDS011;16482;51.046;4.498;2022-12-18T16:21:55;7.93;;;5.47;;
29538;SDS011;16482;51.046;4.498;2022-12-18T16:24:26;8.50;;;6.15;;
29538;SDS011;16482;51.046;4.498;2022-12-18T16:26:54;7.70;;;5.97;;
29538;SDS011;16482;51.046;4.498;2022-12-18T16:29:22;7.45;;;5.95;;
29538;SDS011;16482;51.046;4.498;2022-12-18T16:31:52;6.65;;;5.80;;
29538;SDS011;16482;51.046;4.498;2022-12-18T16:34:21;6.95;;;5.90;;
29538;SDS011;16482;51.046;4.498;2022-12-18T16:36:53;6.55;;;5.65;;
29538;SDS011;16482;51.046;4.498;2022-12-18T16:39:20;6.20;;;5.50;;
29538;SDS011;16482;51.046;4.498;2022-12-18T16:41:46;6.28;;;5.28;;
29538;SDS011;16482;51.046;4.498;2022-12-18T16:44:12;6.80;;;5.47;;
29538;SDS011;16482;51.046;4.498;2022-12-18T16:46:39;7.35;;;5.80;;
29538;SDS011;16482;51.046;4.498;2022-12-18T16:49:15;6.95;;;5.80;;
29538;SDS011;16482;51.046;4.498;2022-12-18T16:51:46;6.78;;;5.75;;
29538;SDS011;16482;51.046;4.498;2022-12-18T16:54:12;6.93;;;5.57;;
29538;SDS011;16482;51.046;4.498;2022-12-18T16:56:46;7.28;;;5.97;;
29538;SDS011;16482;51.046;4.498;2022-12-18T16:59:21;7.75;;;6.18;;
29538;SDS011;16482;51.046;4.498;2022-12-18T17:01:47;6.95;;;5.90;;